sensor_id;sensor_type;location;lat;lon;timestamp;temperature;humidity
20973;DHT22;10645;52.370;13.314;2024-02-16T00:01:21;7.40;99.90
20973;DHT22;10645;52.370;13.314;2024-02-16T00:03:48;7.40;99.90
20973;DHT22;10645;52.370;13.314;2024-02-16T00:06:14;7.40;99.90
20973;DHT22;10645;52.370;13.314;2024-02-16T00:08:41;7.30;99.90
20973;DHT22;10645;52.370;13.314;2024-02-16T00:11:07;7.30;99.90
20973;DHT22;10645;52.370;13.314;2024-02-16T00:13:33;7.30;99.90
20973;DHT22;10645;52.370;13.314;2024-02-16T00:15:59;7.20;99.90
20973;DHT22;10645;52.370;13.314;2024-02-16T00:18:25;7.20;99.90
20973;DHT22;10645;52.370;13.314;2024-02-16T00:20:52;7.20;99.90
20973;DHT22;10645;52.370;13.314;2024-02-16T00:23:18;7.20;99.90
20973;DHT22;10645;52.370;13.314;2024-02-16T00:25:48;7.20;99.90
20973;DHT22;10645;52.370;13.314;2024-02-16T00:28:14;7.20;99.90
20973;DHT22;10645;52.370;13.314;2024-02-16T00:30:40;7.20;99.90
20973;DHT22;10645;52.370;13.314;2024-02-16T00:33:07;7.20;99.90
20973;DHT22;10645;52.370;13.314;2024-02-16T00:35:33;7.20;99.90
20973;DHT22;10645;52.370;13.314;2024-02-16T00:38:00;7.20;99.90
20973;DHT22;10645;52.370;13.314;2024-02-16T00:40:26;7.20;99.90
20973;DHT22;10645;52.370;13.314;2024-02-16T00:42:55;7.20;99.90
20973;DHT22;10645;52.370;13.314;2024-02-16T00:45:21;7.20;99.90
20973;DHT22;10645;52.370;13.314;2024-02-16T00:47:47;7.20;99.90
20973;DHT22;10645;52.370;13.314;2024-02-16T00:50:14;7.20;99.90
20973;DHT22;10645;52.370;13.314;2024-02-16T00:52:41;7.20;99.90
20973;DHT22;10645;52.370;13.314;2024-02-16T00:55:08;7.20;99.90
20973;DHT22;10645;52.370;13.314;2024-02-16T00:57:34;7.20;99.90
20973;DHT22;10645;52.370;13.314;2024-02-16T01:00:00;7.20;99.90
20973;DHT22;10645;52.370;13.314;2024-02-16T01:02:26;7.30;99.90
20973;DHT22;10645;52.370;13.314;2024-02-16T01:04:52;7.40;99.90
20973;DHT22;10645;52.370;13.314;2024-02-16T01:07:20;7.50;99.90
20973;DHT22;10645;52.370;13.314;2024-02-16T01:09:46;7.50;99.90
20973;DHT22;10645;52.370;13.314;2024-02-16T01:12:13;7.60;99.90
20973;DHT22;10645;52.370;13.314;2024-02-16T01:14:39;7.70;99.90
20973;DHT22;10645;52.370;13.314;2024-02-16T01:17:05;7.70;99.90
20973;DHT22;10645;52.370;13.314;2024-02-16T01:19:31;7.70;99.90
20973;DHT22;10645;52.370;13.314;2024-02-16T01:21:59;7.60;99.90
20973;DHT22;10645;52.370;13.314;2024-02-16T01:24:26;7.60;99.90
20973;DHT22;10645;52.370;13.314;2024-02-16T01:26:52;7.60;99.90
20973;DHT22;10645;52.370;13.314;2024-02-16T01:29:18;7.60;99.90
20973;DHT22;10645;52.370;13.314;2024-02-16T01:31:45;7.60;99.90
20973;DHT22;10645;52.370;13.314;2024-02-16T01:34:11;7.70;99.90
20973;DHT22;10645;52.370;13.314;2024-02-16T01:36:37;7.70;99.90
20973;DHT22;10645;52.370;13.314;2024-02-16T01:39:03;7.70;99.90
20973;DHT22;10645;52.370;13.314;2024-02-16T01:41:29;7.80;99.90
20973;DHT22;10645;52.370;13.314;2024-02-16T01:43:55;7.80;99.90
20973;DHT22;10645;52.370;13.314;2024-02-16T01:46:22;7.80;99.90
20973;DHT22;10645;52.370;13.314;2024-02-16T01:48:48;7.80;99.90
20973;DHT22;10645;52.370;13.314;2024-02-16T01:51:16;7.80;99.90
20973;DHT22;10645;52.370;13.314;2024-02-16T01:53:42;7.70;99.90
20973;DHT22;10645;52.370;13.314;2024-02-16T01:56:08;7.60;99.90
20973;DHT22;10645;52.370;13.314;2024-02-16T01:58:35;7.50;99.90
20973;DHT22;10645;52.370;13.314;2024-02-16T02:01:01;7.50;99.90
20973;DHT22;10645;52.370;13.314;2024-02-16T02:03:27;7.50;99.90
20973;DHT22;10645;52.370;13.314;2024-02-16T02:05:54;7.50;99.90
20973;DHT22;10645;52.370;13.314;2024-02-16T02:08:21;7.50;99.90
20973;DHT22;10645;52.370;13.314;2024-02-16T02:10:48;7.50;99.90
20973;DHT22;10645;52.370;13.314;2024-02-16T02:13:15;7.50;99.90
20973;DHT22;10645;52.370;13.314;2024-02-16T02:15:41;7.50;99.90
20973;DHT22;10645;52.370;13.314;2024-02-16T02:18:07;7.50;99.90
20973;DHT22;10645;52.370;13.314;2024-02-16T02:20:33;7.60;99.90
20973;DHT22;10645;52.370;13.314;2024-02-16T02:22:59;7.60;99.90
20973;DHT22;10645;52.370;13.314;2024-02-16T02:25:25;7.70;99.90
20973;DHT22;10645;52.370;13.314;2024-02-16T02:27:54;7.80;99.90
20973;DHT22;10645;52.370;13.314;2024-02-16T02:30:21;7.90;99.90
20973;DHT22;10645;52.370;13.314;2024-02-16T02:32:51;7.90;99.90
20973;DHT22;10645;52.370;13.314;2024-02-16T02:35:18;8.00;99.90
20973;DHT22;10645;52.370;13.314;2024-02-16T02:37:44;8.00;99.90
20973;DHT22;10645;52.370;13.314;2024-02-16T02:40:11;8.00;99.90
20973;DHT22;10645;52.370;13.314;2024-02-16T02:42:38;8.00;99.90
20973;DHT22;10645;52.370;13.314;2024-02-16T02:45:05;8.00;99.90
20973;DHT22;10645;52.370;13.314;2024-02-16T02:47:31;8.00;99.90
20973;DHT22;10645;52.370;13.314;2024-02-16T02:49:58;8.00;99.90
20973;DHT22;10645;52.370;13.314;2024-02-16T02:52:24;8.00;99.90
20973;DHT22;10645;52.370;13.314;2024-02-16T02:54:50;8.10;99.90
20973;DHT22;10645;52.370;13.314;2024-02-16T02:57:16;8.10;99.90
20973;DHT22;10645;52.370;13.314;2024-02-16T02:59:42;8.10;99.90
20973;DHT22;10645;52.370;13.314;2024-02-16T03:02:08;8.20;99.90
20973;DHT22;10645;52.370;13.314;2024-02-16T03:04:35;8.20;99.90
20973;DHT22;10645;52.370;13.314;2024-02-16T03:07:01;8.20;99.90
20973;DHT22;10645;52.370;13.314;2024-02-16T03:09:27;8.20;99.90
20973;DHT22;10645;52.370;13.314;2024-02-16T03:11:53;8.30;99.90
20973;DHT22;10645;52.370;13.314;2024-02-16T03:14:19;8.30;99.90
20973;DHT22;10645;52.370;13.314;2024-02-16T03:16:45;8.30;99.90
20973;DHT22;10645;52.370;13.314;2024-02-16T03:19:12;8.30;99.90
20973;DHT22;10645;52.370;13.314;2024-02-16T03:21:38;8.30;99.90
20973;DHT22;10645;52.370;13.314;2024-02-16T03:24:05;8.30;99.90
20973;DHT22;10645;52.370;13.314;2024-02-16T03:26:31;8.30;99.90
20973;DHT22;10645;52.370;13.314;2024-02-16T03:28:58;8.40;99.90
20973;DHT22;10645;52.370;13.314;2024-02-16T03:31:24;8.30;99.90
20973;DHT22;10645;52.370;13.314;2024-02-16T03:33:51;8.30;99.90
20973;DHT22;10645;52.370;13.314;2024-02-16T03:36:18;8.20;99.90
20973;DHT22;10645;52.370;13.314;2024-02-16T03:38:46;8.20;99.90
20973;DHT22;10645;52.370;13.314;2024-02-16T03:41:19;8.20;99.90
20973;DHT22;10645;52.370;13.314;2024-02-16T03:43:45;8.10;99.90
20973;DHT22;10645;52.370;13.314;2024-02-16T03:46:11;8.10;99.90
20973;DHT22;10645;52.370;13.314;2024-02-16T03:48:38;8.10;99.90
20973;DHT22;10645;52.370;13.314;2024-02-16T03:51:06;8.20;99.90
20973;DHT22;10645;52.370;13.314;2024-02-16T03:53:32;8.20;99.90
20973;DHT22;10645;52.370;13.314;2024-02-16T03:55:58;8.20;99.90
20973;DHT22;10645;52.370;13.314;2024-02-16T03:58:24;8.20;99.90
20973;DHT22;10645;52.370;13.314;2024-02-16T04:00:50;8.20;99.90
20973;DHT22;10645;52.370;13.314;2024-02-16T04:03:18;8.30;99.90
20973;DHT22;10645;52.370;13.314;2024-02-16T04:05:45;8.30;99.90
20973;DHT22;10645;52.370;13.314;2024-02-16T04:08:11;8.30;99.90
20973;DHT22;10645;52.370;13.314;2024-02-16T04:10:37;8.20;99.90
20973;DHT22;10645;52.370;13.314;2024-02-16T04:13:03;8.30;99.90
20973;DHT22;10645;52.370;13.314;2024-02-16T04:15:29;8.30;99.90
20973;DHT22;10645;52.370;13.314;2024-02-16T04:17:56;8.30;99.90
20973;DHT22;10645;52.370;13.314;2024-02-16T04:20:22;8.40;99.90
20973;DHT22;10645;52.370;13.314;2024-02-16T04:22:48;8.40;99.90
20973;DHT22;10645;52.370;13.314;2024-02-16T04:25:15;8.40;99.90
20973;DHT22;10645;52.370;13.314;2024-02-16T04:27:41;8.40;99.90
20973;DHT22;10645;52.370;13.314;2024-02-16T04:30:07;8.40;99.90
20973;DHT22;10645;52.370;13.314;2024-02-16T04:32:33;8.50;99.90
20973;DHT22;10645;52.370;13.314;2024-02-16T04:35:00;8.50;99.90
20973;DHT22;10645;52.370;13.314;2024-02-16T04:37:26;8.50;99.90
20973;DHT22;10645;52.370;13.314;2024-02-16T04:39:52;8.50;99.90
20973;DHT22;10645;52.370;13.314;2024-02-16T04:42:18;8.50;99.90
20973;DHT22;10645;52.370;13.314;2024-02-16T04:44:44;8.50;99.90
20973;DHT22;10645;52.370;13.314;2024-02-16T04:47:10;8.50;99.90
20973;DHT22;10645;52.370;13.314;2024-02-16T04:49:37;8.50;99.90
20973;DHT22;10645;52.370;13.314;2024-02-16T04:52:04;8.50;99.90
20973;DHT22;10645;52.370;13.314;2024-02-16T04:54:30;8.60;99.90
20973;DHT22;10645;52.370;13.314;2024-02-16T04:56:56;8.60;99.90
20973;DHT22;10645;52.370;13.314;2024-02-16T04:59:22;8.60;99.90
20973;DHT22;10645;52.370;13.314;2024-02-16T05:01:48;8.60;99.90
20973;DHT22;10645;52.370;13.314;2024-02-16T05:04:14;8.60;99.90
20973;DHT22;10645;52.370;13.314;2024-02-16T05:06:46;8.60;99.90
20973;DHT22;10645;52.370;13.314;2024-02-16T05:09:16;8.60;99.90
20973;DHT22;10645;52.370;13.314;2024-02-16T05:11:43;8.60;99.90
20973;DHT22;10645;52.370;13.314;2024-02-16T05:14:10;8.60;99.90
20973;DHT22;10645;52.370;13.314;2024-02-16T05:16:42;8.60;99.90
20973;DHT22;10645;52.370;13.314;2024-02-16T05:19:08;8.50;99.90
20973;DHT22;10645;52.370;13.314;2024-02-16T05:21:34;8.40;99.90
20973;DHT22;10645;52.370;13.314;2024-02-16T05:24:01;8.40;99.90
20973;DHT22;10645;52.370;13.314;2024-02-16T05:26:27;8.40;99.90
20973;DHT22;10645;52.370;13.314;2024-02-16T05:28:53;8.40;99.90
20973;DHT22;10645;52.370;13.314;2024-02-16T05:31:19;8.30;99.90
20973;DHT22;10645;52.370;13.314;2024-02-16T05:33:48;8.30;99.90
20973;DHT22;10645;52.370;13.314;2024-02-16T05:36:21;8.20;99.90
20973;DHT22;10645;52.370;13.314;2024-02-16T05:38:50;8.20;99.90
20973;DHT22;10645;52.370;13.314;2024-02-16T05:41:17;8.20;99.90
20973;DHT22;10645;52.370;13.314;2024-02-16T05:43:44;8.20;99.90
20973;DHT22;10645;52.370;13.314;2024-02-16T05:46:16;8.20;99.90
20973;DHT22;10645;52.370;13.314;2024-02-16T05:48:44;8.10;99.90
20973;DHT22;10645;52.370;13.314;2024-02-16T05:51:11;8.10;99.90
20973;DHT22;10645;52.370;13.314;2024-02-16T05:53:41;8.10;99.90
20973;DHT22;10645;52.370;13.314;2024-02-16T05:56:08;8.10;99.90
20973;DHT22;10645;52.370;13.314;2024-02-16T05:58:36;8.10;99.90
20973;DHT22;10645;52.370;13.314;2024-02-16T06:01:02;8.00;99.90
20973;DHT22;10645;52.370;13.314;2024-02-16T06:03:28;8.10;99.90
20973;DHT22;10645;52.370;13.314;2024-02-16T06:05:54;8.10;99.90
20973;DHT22;10645;52.370;13.314;2024-02-16T06:08:20;8.10;99.90
20973;DHT22;10645;52.370;13.314;2024-02-16T06:10:46;8.10;99.90
20973;DHT22;10645;52.370;13.314;2024-02-16T06:13:20;8.10;99.90
20973;DHT22;10645;52.370;13.314;2024-02-16T06:15:47;8.10;99.90
20973;DHT22;10645;52.370;13.314;2024-02-16T06:18:13;8.10;99.90
20973;DHT22;10645;52.370;13.314;2024-02-16T06:20:39;8.10;99.90
20973;DHT22;10645;52.370;13.314;2024-02-16T06:23:05;8.00;99.90
20973;DHT22;10645;52.370;13.314;2024-02-16T06:25:32;8.00;99.90
20973;DHT22;10645;52.370;13.314;2024-02-16T06:27:58;8.00;99.90
20973;DHT22;10645;52.370;13.314;2024-02-16T06:30:25;8.10;99.90
20973;DHT22;10645;52.370;13.314;2024-02-16T06:32:51;8.10;99.90
20973;DHT22;10645;52.370;13.314;2024-02-16T06:35:19;8.10;99.90
20973;DHT22;10645;52.370;13.314;2024-02-16T06:37:45;8.20;99.90
20973;DHT22;10645;52.370;13.314;2024-02-16T06:40:11;8.20;99.90
20973;DHT22;10645;52.370;13.314;2024-02-16T06:42:38;8.20;99.90
20973;DHT22;10645;52.370;13.314;2024-02-16T06:45:04;8.30;99.90
20973;DHT22;10645;52.370;13.314;2024-02-16T06:47:31;8.30;99.90
20973;DHT22;10645;52.370;13.314;2024-02-16T06:49:57;8.30;99.90
20973;DHT22;10645;52.370;13.314;2024-02-16T06:52:23;8.30;99.90
20973;DHT22;10645;52.370;13.314;2024-02-16T06:54:53;8.30;99.90
20973;DHT22;10645;52.370;13.314;2024-02-16T06:57:20;8.30;99.90
20973;DHT22;10645;52.370;13.314;2024-02-16T06:59:46;8.30;99.90
20973;DHT22;10645;52.370;13.314;2024-02-16T07:02:13;8.30;99.90
20973;DHT22;10645;52.370;13.314;2024-02-16T07:04:40;8.30;99.90
20973;DHT22;10645;52.370;13.314;2024-02-16T07:07:06;8.30;99.90
20973;DHT22;10645;52.370;13.314;2024-02-16T07:09:32;8.30;99.90
20973;DHT22;10645;52.370;13.314;2024-02-16T07:11:59;8.30;99.90
20973;DHT22;10645;52.370;13.314;2024-02-16T07:14:25;8.30;99.90
20973;DHT22;10645;52.370;13.314;2024-02-16T07:16:51;8.40;99.90
20973;DHT22;10645;52.370;13.314;2024-02-16T07:19:17;8.40;99.90
20973;DHT22;10645;52.370;13.314;2024-02-16T07:21:44;8.40;99.90
20973;DHT22;10645;52.370;13.314;2024-02-16T07:24:10;8.40;99.90
20973;DHT22;10645;52.370;13.314;2024-02-16T07:26:36;8.40;99.90
20973;DHT22;10645;52.370;13.314;2024-02-16T07:29:03;8.40;99.90
20973;DHT22;10645;52.370;13.314;2024-02-16T07:31:33;8.40;99.90
20973;DHT22;10645;52.370;13.314;2024-02-16T07:34:03;8.50;99.90
20973;DHT22;10645;52.370;13.314;2024-02-16T07:36:29;8.50;99.90
20973;DHT22;10645;52.370;13.314;2024-02-16T07:38:56;8.60;99.90
20973;DHT22;10645;52.370;13.314;2024-02-16T07:41:23;8.60;99.90
20973;DHT22;10645;52.370;13.314;2024-02-16T07:43:54;8.60;99.90
20973;DHT22;10645;52.370;13.314;2024-02-16T07:46:20;8.70;99.90
20973;DHT22;10645;52.370;13.314;2024-02-16T07:48:46;8.80;99.90
20973;DHT22;10645;52.370;13.314;2024-02-16T07:51:12;8.90;99.90
20973;DHT22;10645;52.370;13.314;2024-02-16T07:53:39;9.00;99.90
20973;DHT22;10645;52.370;13.314;2024-02-16T07:56:08;9.20;99.90
20973;DHT22;10645;52.370;13.314;2024-02-16T07:58:34;9.40;99.90
20973;DHT22;10645;52.370;13.314;2024-02-16T08:01:02;9.50;99.90
20973;DHT22;10645;52.370;13.314;2024-02-16T08:03:28;9.70;99.90
20973;DHT22;10645;52.370;13.314;2024-02-16T08:05:56;9.90;99.90
20973;DHT22;10645;52.370;13.314;2024-02-16T08:08:22;10.10;99.90
20973;DHT22;10645;52.370;13.314;2024-02-16T08:10:50;10.30;99.90
20973;DHT22;10645;52.370;13.314;2024-02-16T08:13:17;10.40;99.90
20973;DHT22;10645;52.370;13.314;2024-02-16T08:15:44;10.50;99.90
20973;DHT22;10645;52.370;13.314;2024-02-16T08:18:10;10.50;99.90
20973;DHT22;10645;52.370;13.314;2024-02-16T08:20:37;10.70;99.90
20973;DHT22;10645;52.370;13.314;2024-02-16T08:23:03;10.80;99.90
20973;DHT22;10645;52.370;13.314;2024-02-16T08:25:30;10.80;99.90
20973;DHT22;10645;52.370;13.314;2024-02-16T08:27:56;10.90;99.90
20973;DHT22;10645;52.370;13.314;2024-02-16T08:30:22;10.90;99.90
20973;DHT22;10645;52.370;13.314;2024-02-16T08:32:49;11.00;99.90
20973;DHT22;10645;52.370;13.314;2024-02-16T08:35:15;11.10;99.90
20973;DHT22;10645;52.370;13.314;2024-02-16T08:37:42;11.20;99.90
20973;DHT22;10645;52.370;13.314;2024-02-16T08:40:09;11.20;99.90
20973;DHT22;10645;52.370;13.314;2024-02-16T08:42:41;11.20;99.90
20973;DHT22;10645;52.370;13.314;2024-02-16T08:45:08;11.30;99.90
20973;DHT22;10645;52.370;13.314;2024-02-16T08:47:34;11.40;99.90
20973;DHT22;10645;52.370;13.314;2024-02-16T08:50:00;11.50;99.90
20973;DHT22;10645;52.370;13.314;2024-02-16T08:52:27;11.50;99.90
20973;DHT22;10645;52.370;13.314;2024-02-16T08:54:53;11.60;99.90
20973;DHT22;10645;52.370;13.314;2024-02-16T08:57:19;11.60;99.90
20973;DHT22;10645;52.370;13.314;2024-02-16T08:59:46;11.70;99.90
20973;DHT22;10645;52.370;13.314;2024-02-16T09:02:12;11.80;99.90
20973;DHT22;10645;52.370;13.314;2024-02-16T09:04:38;11.90;99.90
20973;DHT22;10645;52.370;13.314;2024-02-16T09:07:04;12.00;99.90
20973;DHT22;10645;52.370;13.314;2024-02-16T09:09:30;12.00;99.90
20973;DHT22;10645;52.370;13.314;2024-02-16T09:11:56;12.10;99.90
20973;DHT22;10645;52.370;13.314;2024-02-16T09:14:23;12.10;99.90
20973;DHT22;10645;52.370;13.314;2024-02-16T09:16:49;12.20;99.90
20973;DHT22;10645;52.370;13.314;2024-02-16T09:19:19;12.20;99.90
20973;DHT22;10645;52.370;13.314;2024-02-16T09:21:48;12.20;99.90
20973;DHT22;10645;52.370;13.314;2024-02-16T09:24:15;12.30;99.90
20973;DHT22;10645;52.370;13.314;2024-02-16T09:26:44;12.30;99.90
20973;DHT22;10645;52.370;13.314;2024-02-16T09:29:13;12.40;99.90
20973;DHT22;10645;52.370;13.314;2024-02-16T09:31:41;12.50;99.90
20973;DHT22;10645;52.370;13.314;2024-02-16T09:34:08;12.50;99.90
20973;DHT22;10645;52.370;13.314;2024-02-16T09:36:34;12.60;99.90
20973;DHT22;10645;52.370;13.314;2024-02-16T09:39:02;12.60;99.90
20973;DHT22;10645;52.370;13.314;2024-02-16T09:41:28;12.70;99.90
20973;DHT22;10645;52.370;13.314;2024-02-16T09:43:54;12.80;99.90
20973;DHT22;10645;52.370;13.314;2024-02-16T09:46:21;12.90;99.90
20973;DHT22;10645;52.370;13.314;2024-02-16T09:48:49;13.00;99.90
20973;DHT22;10645;52.370;13.314;2024-02-16T09:51:18;12.90;99.90
20973;DHT22;10645;52.370;13.314;2024-02-16T09:53:50;13.00;99.90
20973;DHT22;10645;52.370;13.314;2024-02-16T09:56:18;13.20;99.90
20973;DHT22;10645;52.370;13.314;2024-02-16T09:58:44;13.20;99.90
20973;DHT22;10645;52.370;13.314;2024-02-16T10:01:17;13.30;99.90
20973;DHT22;10645;52.370;13.314;2024-02-16T10:03:45;13.30;99.90
20973;DHT22;10645;52.370;13.314;2024-02-16T10:06:12;13.30;99.90
20973;DHT22;10645;52.370;13.314;2024-02-16T10:08:52;13.30;99.90
20973;DHT22;10645;52.370;13.314;2024-02-16T10:11:20;13.20;99.90
20973;DHT22;10645;52.370;13.314;2024-02-16T10:14:02;13.20;99.90
20973;DHT22;10645;52.370;13.314;2024-02-16T10:16:30;13.40;99.90
20973;DHT22;10645;52.370;13.314;2024-02-16T10:19:03;13.40;99.90
20973;DHT22;10645;52.370;13.314;2024-02-16T10:21:30;13.40;99.90
20973;DHT22;10645;52.370;13.314;2024-02-16T10:24:06;13.40;99.90
20973;DHT22;10645;52.370;13.314;2024-02-16T10:26:34;13.40;99.90
20973;DHT22;10645;52.370;13.314;2024-02-16T10:29:05;13.40;99.90
20973;DHT22;10645;52.370;13.314;2024-02-16T10:31:32;13.40;99.90
20973;DHT22;10645;52.370;13.314;2024-02-16T10:34:03;13.50;99.90
20973;DHT22;10645;52.370;13.314;2024-02-16T10:36:39;13.50;99.90
20973;DHT22;10645;52.370;13.314;2024-02-16T10:39:06;13.40;99.90
20973;DHT22;10645;52.370;13.314;2024-02-16T10:41:37;13.40;99.90
20973;DHT22;10645;52.370;13.314;2024-02-16T10:44:04;13.40;99.90
20973;DHT22;10645;52.370;13.314;2024-02-16T10:46:32;13.40;99.90
20973;DHT22;10645;52.370;13.314;2024-02-16T10:48:58;13.50;99.90
20973;DHT22;10645;52.370;13.314;2024-02-16T10:51:37;13.50;99.90
20973;DHT22;10645;52.370;13.314;2024-02-16T10:54:05;13.60;99.90
20973;DHT22;10645;52.370;13.314;2024-02-16T10:56:35;13.60;99.90
20973;DHT22;10645;52.370;13.314;2024-02-16T10:59:03;13.70;99.90
20973;DHT22;10645;52.370;13.314;2024-02-16T11:01:37;13.70;99.90
20973;DHT22;10645;52.370;13.314;2024-02-16T11:04:04;13.80;99.90
20973;DHT22;10645;52.370;13.314;2024-02-16T11:06:30;13.80;99.90
20973;DHT22;10645;52.370;13.314;2024-02-16T11:09:02;13.90;99.90
20973;DHT22;10645;52.370;13.314;2024-02-16T11:11:36;13.90;99.90
20973;DHT22;10645;52.370;13.314;2024-02-16T11:14:02;14.10;99.90
20973;DHT22;10645;52.370;13.314;2024-02-16T11:16:29;14.10;99.90
20973;DHT22;10645;52.370;13.314;2024-02-16T11:18:56;14.20;99.90
20973;DHT22;10645;52.370;13.314;2024-02-16T11:21:22;14.30;99.90
20973;DHT22;10645;52.370;13.314;2024-02-16T11:23:48;14.30;99.90
20973;DHT22;10645;52.370;13.314;2024-02-16T11:26:17;14.40;99.90
20973;DHT22;10645;52.370;13.314;2024-02-16T11:28:43;14.40;99.90
20973;DHT22;10645;52.370;13.314;2024-02-16T11:31:09;14.60;99.90
20973;DHT22;10645;52.370;13.314;2024-02-16T11:33:35;14.70;99.90
20973;DHT22;10645;52.370;13.314;2024-02-16T11:36:03;14.60;99.90
20973;DHT22;10645;52.370;13.314;2024-02-16T11:38:33;14.70;99.90
20973;DHT22;10645;52.370;13.314;2024-02-16T11:41:06;14.80;99.90
20973;DHT22;10645;52.370;13.314;2024-02-16T11:43:35;15.00;99.90
20973;DHT22;10645;52.370;13.314;2024-02-16T11:46:14;15.20;99.90
20973;DHT22;10645;52.370;13.314;2024-02-16T11:48:41;15.50;99.90
20973;DHT22;10645;52.370;13.314;2024-02-16T11:51:09;15.70;99.90
20973;DHT22;10645;52.370;13.314;2024-02-16T11:53:35;15.60;99.90
20973;DHT22;10645;52.370;13.314;2024-02-16T11:56:02;15.40;99.90
20973;DHT22;10645;52.370;13.314;2024-02-16T11:58:32;15.30;99.90
20973;DHT22;10645;52.370;13.314;2024-02-16T12:00:58;15.20;99.90
20973;DHT22;10645;52.370;13.314;2024-02-16T12:03:26;15.10;99.90
20973;DHT22;10645;52.370;13.314;2024-02-16T12:05:55;15.20;99.90
20973;DHT22;10645;52.370;13.314;2024-02-16T12:08:22;15.20;99.90
20973;DHT22;10645;52.370;13.314;2024-02-16T12:10:49;15.20;99.90
20973;DHT22;10645;52.370;13.314;2024-02-16T12:13:18;15.20;99.90
20973;DHT22;10645;52.370;13.314;2024-02-16T12:15:45;15.20;99.90
20973;DHT22;10645;52.370;13.314;2024-02-16T12:18:27;15.30;99.90
20973;DHT22;10645;52.370;13.314;2024-02-16T12:21:02;15.50;99.90
20973;DHT22;10645;52.370;13.314;2024-02-16T12:23:30;15.70;99.90
20973;DHT22;10645;52.370;13.314;2024-02-16T12:26:00;15.90;99.90
20973;DHT22;10645;52.370;13.314;2024-02-16T12:28:28;16.00;99.90
20973;DHT22;10645;52.370;13.314;2024-02-16T12:30:55;16.10;99.90
20973;DHT22;10645;52.370;13.314;2024-02-16T12:33:22;16.30;99.90
20973;DHT22;10645;52.370;13.314;2024-02-16T12:35:48;16.40;99.90
20973;DHT22;10645;52.370;13.314;2024-02-16T12:38:15;16.20;99.90
20973;DHT22;10645;52.370;13.314;2024-02-16T12:40:47;16.10;99.90
20973;DHT22;10645;52.370;13.314;2024-02-16T12:43:14;16.10;99.90
20973;DHT22;10645;52.370;13.314;2024-02-16T12:45:41;16.10;99.90
20973;DHT22;10645;52.370;13.314;2024-02-16T12:48:08;16.00;99.90
20973;DHT22;10645;52.370;13.314;2024-02-16T12:50:36;16.00;99.90
20973;DHT22;10645;52.370;13.314;2024-02-16T12:53:04;15.90;99.90
20973;DHT22;10645;52.370;13.314;2024-02-16T12:55:30;16.00;99.90
20973;DHT22;10645;52.370;13.314;2024-02-16T12:57:57;16.00;99.90
20973;DHT22;10645;52.370;13.314;2024-02-16T13:00:23;16.00;99.90
20973;DHT22;10645;52.370;13.314;2024-02-16T13:02:49;16.00;99.90
20973;DHT22;10645;52.370;13.314;2024-02-16T13:05:16;16.00;99.90
20973;DHT22;10645;52.370;13.314;2024-02-16T13:07:42;16.10;99.90
20973;DHT22;10645;52.370;13.314;2024-02-16T13:10:09;15.90;99.90
20973;DHT22;10645;52.370;13.314;2024-02-16T13:12:37;15.90;99.90
20973;DHT22;10645;52.370;13.314;2024-02-16T13:15:05;15.70;99.90
20973;DHT22;10645;52.370;13.314;2024-02-16T13:17:32;15.80;99.90
20973;DHT22;10645;52.370;13.314;2024-02-16T13:19:59;15.80;99.90
20973;DHT22;10645;52.370;13.314;2024-02-16T13:22:36;15.70;99.90
20973;DHT22;10645;52.370;13.314;2024-02-16T13:25:06;15.60;99.90
20973;DHT22;10645;52.370;13.314;2024-02-16T13:27:33;15.50;99.90
20973;DHT22;10645;52.370;13.314;2024-02-16T13:30:00;15.50;99.90
20973;DHT22;10645;52.370;13.314;2024-02-16T13:32:26;15.50;99.90
20973;DHT22;10645;52.370;13.314;2024-02-16T13:34:52;15.40;99.90
20973;DHT22;10645;52.370;13.314;2024-02-16T13:37:18;15.20;99.90
20973;DHT22;10645;52.370;13.314;2024-02-16T13:39:44;15.20;99.90
20973;DHT22;10645;52.370;13.314;2024-02-16T13:42:12;15.10;99.90
20973;DHT22;10645;52.370;13.314;2024-02-16T13:44:39;15.20;99.90
20973;DHT22;10645;52.370;13.314;2024-02-16T13:47:06;15.10;99.90
20973;DHT22;10645;52.370;13.314;2024-02-16T13:49:32;15.00;99.90
20973;DHT22;10645;52.370;13.314;2024-02-16T13:51:58;14.90;99.90
20973;DHT22;10645;52.370;13.314;2024-02-16T13:54:25;14.90;99.90
20973;DHT22;10645;52.370;13.314;2024-02-16T13:56:51;14.90;99.90
20973;DHT22;10645;52.370;13.314;2024-02-16T13:59:19;14.90;99.90
20973;DHT22;10645;52.370;13.314;2024-02-16T14:01:46;15.00;99.90
20973;DHT22;10645;52.370;13.314;2024-02-16T14:04:13;15.00;99.90
20973;DHT22;10645;52.370;13.314;2024-02-16T14:06:39;15.10;99.90
20973;DHT22;10645;52.370;13.314;2024-02-16T14:09:05;15.00;99.90
20973;DHT22;10645;52.370;13.314;2024-02-16T14:11:41;15.10;99.90
20973;DHT22;10645;52.370;13.314;2024-02-16T14:14:15;15.10;99.90
20973;DHT22;10645;52.370;13.314;2024-02-16T14:16:42;15.20;99.90
20973;DHT22;10645;52.370;13.314;2024-02-16T14:19:09;15.20;99.90
20973;DHT22;10645;52.370;13.314;2024-02-16T14:21:35;15.10;99.90
20973;DHT22;10645;52.370;13.314;2024-02-16T14:24:01;15.10;99.90
20973;DHT22;10645;52.370;13.314;2024-02-16T14:26:27;15.10;99.90
20973;DHT22;10645;52.370;13.314;2024-02-16T14:28:55;15.20;99.90
20973;DHT22;10645;52.370;13.314;2024-02-16T14:31:24;15.20;99.90
20973;DHT22;10645;52.370;13.314;2024-02-16T14:33:56;15.20;99.90
20973;DHT22;10645;52.370;13.314;2024-02-16T14:36:22;15.30;99.90
20973;DHT22;10645;52.370;13.314;2024-02-16T14:38:49;15.20;99.90
20973;DHT22;10645;52.370;13.314;2024-02-16T14:41:16;15.10;99.90
20973;DHT22;10645;52.370;13.314;2024-02-16T14:43:42;15.20;99.90
20973;DHT22;10645;52.370;13.314;2024-02-16T14:46:09;15.30;99.90
20973;DHT22;10645;52.370;13.314;2024-02-16T14:48:35;15.30;99.90
20973;DHT22;10645;52.370;13.314;2024-02-16T14:51:03;15.30;99.90
20973;DHT22;10645;52.370;13.314;2024-02-16T14:53:30;15.30;99.90
20973;DHT22;10645;52.370;13.314;2024-02-16T14:56:02;15.30;99.90
20973;DHT22;10645;52.370;13.314;2024-02-16T14:58:31;15.20;99.90
20973;DHT22;10645;52.370;13.314;2024-02-16T15:00:58;15.20;99.90
20973;DHT22;10645;52.370;13.314;2024-02-16T15:03:24;15.20;99.90
20973;DHT22;10645;52.370;13.314;2024-02-16T15:05:52;15.20;99.90
20973;DHT22;10645;52.370;13.314;2024-02-16T15:08:19;15.10;99.90
20973;DHT22;10645;52.370;13.314;2024-02-16T15:10:45;15.10;99.90
20973;DHT22;10645;52.370;13.314;2024-02-16T15:13:11;15.00;99.90
20973;DHT22;10645;52.370;13.314;2024-02-16T15:15:37;15.00;99.90
20973;DHT22;10645;52.370;13.314;2024-02-16T15:18:03;15.00;99.90
20973;DHT22;10645;52.370;13.314;2024-02-16T15:20:30;14.90;99.90
20973;DHT22;10645;52.370;13.314;2024-02-16T15:22:56;14.80;99.90
20973;DHT22;10645;52.370;13.314;2024-02-16T15:25:23;14.70;99.90